Résultats de la compétition "Pâques en Alsace 2009 -J1" du 11-04-2009 organisée par le club 6804
     
  Télécharger le fichier CSV.  
     
     

 Circuit "Circuit F"

Licence Nom Prénom Temps CN
précédent
Score sur
la course
Différence
10869DENIERSimon0:37:24N/A5463N/A
20974CRANCEMarie-cécile0:40:45N/A5014N/A
20874NERADOVAAlena0:42:26N/A4815N/A
5918BEAUDRONCynthia0:42:4336864783+1097
2179OLIVIERSandra0:43:5356364656-980
13244VARRONStephanie0:44:3148674590-277
13756FLANDRINGautier0:44:3657414581-1160
10882SCHOULLEROlivier0:45:2048654507-358
11476DEBOCQMAINEAgnes0:47:5642894262-27
7983GUNTHERM-Christine0:48:0144714255-216
17503LUDWIGSébastien0:48:4635764190+614
16117TARDYLaetitia0:48:4951514185-966
302BAGUEREYBaptiste0:49:0245784167-411
7852TASSINElodie0:50:05N/A4079N/A
2375MAKOVICKAEdwige0:50:5236394017+378
2759PAPILLONCecile0:51:5044803942-538
21254VIEILLE PETITJean Philippe0:52:53N/A3863N/A
2722PARIGOTVirginie0:53:2343973827-570
10867THEZEJulien0:53:3633873812+425
11391CLEMENT-AGONIBenjamin0:53:4346113804-807
2091VANNIERValerie0:53:4556503801-1849
9618PECHSTEINUlrich0:54:1443163767-549
366VESCOVOJ-Albert0:54:4347233734-989
12761MARCHANDStephanie0:54:53N/A3723N/A
743RIZZOTTOHelene0:55:24N/A3688N/A
4373BONNEAUMathilde0:55:3536393676+37
14576GAFFURIA-Laure0:56:4331033602+499
13688FRANCOISAline0:57:0133123583+271
8822LEGUENPascale0:58:29N/A3494N/A
17309BESTELFlorence0:59:0032273463+236
18601PETINONChristine1:01:2331173329+212
18371ARCHAMBEAULTLudovic1:04:2933053168-137
21276PEREIRA DA COSTA DIASLuisa1:05:07N/A3138N/A
14651EDIARHelene1:05:3324733117+644
15310BROUSSEIsabelle1:05:3535303115-415
20219BEAUDEQUINMaxime1:05:5928403096+256
13142LOEWAngelique1:06:1232083086-122
1752GRANSARTRenaud1:08:1938842991-893
10721MAHLERArthur1:10:5929632878-85
21333AUTERIOUXStéphane1:12:21N/A2824N/A
21220TAISSONSandrine1:17:06N/A2650N/A
15859PIDOUXHugues1:24:1634802425-1055
20291CHOLLETCarine1:24:2323932421+28
13080BIDAUXM-Helene1:25:0532282401-827
17899DEPERSINIsabelle1:25:1129642399-565
20722MOREAU-DESCOINGSFrançois1:27:30N/A2335N/A
7873CHATAGNIERAnne1:29:4318382277+439
20289DORLACOlivier1:44:4118151952+137
16738GAYOTJerome11:32:374347295-4052
20024GRAUCathyN/A18100-1810

  Indice de confiance du circuit (moyenne des différences entre CN et score sur la course des 3 à 10 premiers) : 215






 Retour